Flight Track Log - Related Links

Times and Time Zones

All times are in EDT time to prevent confusion due to time zone crossing. See the BOE5 flight status page for this flight to view local times or setup timezone preferences in your user account.

Time Position Orientation Groundspeed Altitude Reporting Facility
EDT Latitude Longitude Course Direction KTS MPH feet Rate Location/Type
Fri 01:55:11 PM 47.5117 -122.2878 147° Southeast 145 167 1,300  Level Seattle Center
Fri 01:55:27 PM 47.5039 -122.2803 147° Southeast 149 171 1,800 1,800 Climbing Seattle Center
Fri 01:56:31 PM 47.4522 -122.2289 146° Southeast 238 274 3,700 1,536 Climbing Seattle Center
Fri 01:57:32 PM 47.3917 -122.1739 148° Southeast 278 320 5,000 984 Climbing Seattle Center
Fri 01:58:33 PM 47.3525 -122.2478 232° Southwest 271 312 5,700 1,966 Climbing Seattle Center
Fri 01:59:31 PM 47.3503 -122.3497 268° West 272 313 8,900 2,824 Climbing Seattle Center
Fri 02:00:32 PM 47.3450 -122.4797 267° West 303 349 11,300 1,967 Climbing Seattle Center
Fri 02:01:33 PM 47.3383 -122.6253 266° West 359 413 12,900 2,049 Climbing Seattle Center
Fri 02:02:35 PM 47.3147 -122.7800 257° West 391 450 15,500 2,341 Climbing Seattle Center
Fri 02:03:36 PM 47.2742 -122.9328 249° West 402 463 17,700 2,115 Climbing Seattle Center
Fri 02:04:37 PM 47.2306 -123.0983 249° West 414 476 19,800 1,131 Climbing Seattle Center
Fri 02:05:38 PM 47.1886 -123.2558 249° West 417 480 20,000 836 Climbing Seattle Center
Fri 02:06:39 PM 47.1458 -123.4153 249° West 422 486 21,500 1,475 Climbing Seattle Center
Fri 02:07:40 PM 47.1028 -123.5767 249° West 428 493 23,000 738 Climbing Seattle Center
Fri 02:08:41 PM 47.0558 -123.7481 248° West 452 520 23,000  Level Seattle Center
Fri 02:09:42 PM 47.0094 -123.9161 248° West 452 520 23,000  Level Seattle Center
Fri 02:10:43 PM 46.9650 -124.0789 248° West 444 511 23,000  Level Seattle Center
Fri 02:11:44 PM 46.8989 -124.2289 237° Southwest 443 510 23,000  Level Seattle Center
Fri 02:12:46 PM 46.8025 -124.3897 229° Southwest 439 505 23,000 -49 Level Seattle Center
Fri 02:13:47 PM 46.7236 -124.5200 229° Southwest 431 496 22,900  Descending Seattle Center
Fri 02:14:48 PM 46.6456 -124.6506 229° Southwest 428 493 23,000  Climbing Seattle Center
Fri 02:15:49 PM 46.5672 -124.7789 228° Southwest 427 491 22,900 -49 Descending Seattle Center
Fri 02:16:50 PM 46.4897 -124.9047 228° Southwest 421 484 22,900 49 Level Seattle Center
Fri 02:17:51 PM 46.4122 -125.0303 228° Southwest 418 481 23,000  Climbing Seattle Center
Fri 02:18:52 PM 46.3414 -125.1469 229° Southwest 418 481 22,900 -49 Descending Seattle Center
Fri 02:19:53 PM 46.2492 -125.2969 228° Southwest 418 481 22,900 49 Level Seattle Center
Fri 02:20:54 PM 46.1728 -125.4175 228° Southwest 411 473 23,000 49 Climbing Seattle Center
Fri 02:21:56 PM 46.0611 -125.4719 199° South 447 514 23,000  Level Seattle Center
Fri 02:22:57 PM 45.9519 -125.3678 146° Southeast 491 565 23,000  Level Seattle Center
Fri 02:23:58 PM 45.9322 -125.1736 98° East 501 577 23,000  Level Seattle Center
Fri 02:24:59 PM 46.0136 -125.0283 51° Northeast 474 545 23,000 -1,426 Level Seattle Center
Fri 02:26:00 PM 46.1256 -124.9189 34° Northeast 488 562 20,100 -1,475 Descending Seattle Center
Fri 02:27:01 PM 46.2428 -124.8164 31° Northeast 493 567 20,000 49 Descending Seattle Center
Fri 02:28:02 PM 46.3522 -124.7208 31° Northeast 466 536 20,200 98 Climbing Seattle Center
Fri 02:29:04 PM 46.4653 -124.6194 32° Northeast 452 520 20,200  Level Seattle Center
Fri 02:30:05 PM 46.5664 -124.5239 33° Northeast 439 505 20,200  Level Seattle Center
Fri 02:31:06 PM 46.6622 -124.4356 32° Northeast 417 480 20,200  Level Seattle Center
Fri 02:32:07 PM 46.7608 -124.3406 33° Northeast 424 488 20,200 -344 Level Seattle Center
Fri 02:33:08 PM 46.8592 -124.2417 35° Northeast 429 494 19,500 -1,328 Descending Seattle Center
Fri 02:34:09 PM 46.9528 -124.0947 47° Northeast 433 498 17,500 -1,918 Descending Seattle Center
Fri 02:35:10 PM 46.8886 -123.9678 126° Southeast 432 497 15,600 -1,770 Descending Seattle Center
Fri 02:36:11 PM 46.8044 -124.0389 210° Southwest 374 430 13,900 -1,707 Descending Seattle Center
Fri 02:37:13 PM 46.7575 -124.1694 242° Southwest 365 420 12,100 -1,756 Descending Seattle Center
Fri 02:38:14 PM 46.7111 -124.2983 242° Southwest 361 415 10,300 -1,426 Descending Seattle Center
Fri 02:39:15 PM 46.6650 -124.4217 241° Southwest 351 404 9,200 -1,082 Descending Seattle Center
Fri 02:40:16 PM 46.6256 -124.5333 243° Southwest 321 369 8,100 -1,377 Descending Seattle Center
Fri 02:41:17 PM 46.5858 -124.6381 241° Southwest 302 348 6,400 -1,279 Descending Seattle Center
Fri 02:42:18 PM 46.5475 -124.7456 243° Southwest 300 345 5,500 -537 Descending Seattle Center
Fri 02:43:20 PM 46.5097 -124.8483 242° Southwest 295 339 5,300 -49 Descending Seattle Center
Fri 02:44:21 PM 46.4711 -124.9517 242° Southwest 293 337 5,400 148 Climbing Seattle Center
Fri 02:45:22 PM 46.4017 -125.0011 206° Southwest 287 330 5,600 98 Climbing Seattle Center
Fri 02:46:23 PM 46.4206 -124.9008 75° East 289 333 5,600 -98 Level Seattle Center
Fri 02:47:24 PM 46.4731 -124.8094 50° Northeast 294 338 5,400 -98 Descending Seattle Center
Fri 02:48:25 PM 46.5264 -124.7231 48° Northeast 290 334 5,400  Level Seattle Center
Fri 02:49:26 PM 46.5892 -124.6211 48° Northeast 315 362 5,400 -49 Level Seattle Center
Fri 02:50:28 PM 46.6528 -124.5119 50° Northeast 338 389 5,300 -49 Descending Seattle Center
Fri 02:51:29 PM 46.7406 -124.4442 28° Northeast 365 420 5,300 49 Level Seattle Center
Fri 02:52:30 PM 46.7736 -124.3308 67° East 361 415 5,400 49 Climbing Seattle Center
Fri 02:53:31 PM 46.6892 -124.3092 170° South 349 402 5,400  Level Seattle Center
Fri 02:54:32 PM 46.6517 -124.4417 248° West 358 412 5,400  Level Seattle Center
Fri 02:55:33 PM 46.6208 -124.5733 251° West 351 404 5,400  Level Seattle Center
Fri 02:56:34 PM 46.5631 -124.7117 239° Southwest 338 389 5,400 -49 Level Seattle Center
Fri 02:57:35 PM 46.4917 -124.7156 182° South 299 344 5,300  Descending Seattle Center
Fri 02:58:36 PM 46.5089 -124.6156 76° East 293 337 5,400 49 Climbing Seattle Center
Fri 02:59:37 PM 46.5728 -124.5528 34° Northeast 283 326 5,400  Level Seattle Center
Fri 03:00:38 PM 46.6525 -124.5064 22° Northeast 301 346 5,400  Level Seattle Center
Fri 03:01:40 PM 46.7417 -124.4639 18° North 343 395 5,400 -49 Level Seattle Center
Fri 03:02:41 PM 46.7275 -124.3517 100° East 344 396 5,300  Descending Seattle Center
Fri 03:03:42 PM 46.6350 -124.3369 174° South 337 388 5,400 49 Climbing Seattle Center
Fri 03:04:43 PM 46.5356 -124.3453 183° South 353 406 5,400  Level Seattle Center
Fri 03:05:44 PM 46.4986 -124.4914 250° West 375 432 5,400 -49 Level Seattle Center
Fri 03:06:45 PM 46.4644 -124.6331 251° West 376 433 5,300 -49 Descending Seattle Center
Fri 03:07:46 PM 46.4933 -124.7928 285° West 386 444 5,300 49 Level Seattle Center
Fri 03:08:47 PM 46.5908 -124.7706 North 373 429 5,400 49 Climbing Seattle Center
Fri 03:09:48 PM 46.6811 -124.6931 30° Northeast 380 437 5,400  Level Seattle Center
Fri 03:10:50 PM 46.6786 -124.5650 92° East 368 423 5,400 -49 Level Seattle Center
Fri 03:11:51 PM 46.5933 -124.5658 180° South 319 367 5,300  Descending Seattle Center
Fri 03:12:52 PM 46.5197 -124.6211 207° Southwest 306 352 5,400  Climbing Seattle Center
Fri 03:13:53 PM 46.5089 -124.7342 262° West 335 386 5,300 -49 Descending Seattle Center
Fri 03:14:54 PM 46.5947 -124.7544 351° North 318 366 5,300  Level Seattle Center
Fri 03:15:55 PM 46.6625 -124.6650 42° Northeast 325 374 5,300 49 Level Seattle Center
Fri 03:16:56 PM 46.6672 -124.5369 87° East 327 376 5,400 49 Climbing Seattle Center
Fri 03:17:57 PM 46.6114 -124.4369 129° Southeast 351 404 5,400 49 Level Seattle Center
Fri 03:18:58 PM 46.4967 -124.4386 181° South 360 414 5,500 49 Climbing Seattle Center
Fri 03:19:59 PM 46.4636 -124.5736 250° West 360 414 5,500  Level Seattle Center
Fri 03:21:01 PM 46.4372 -124.7172 255° West 365 420 5,500 -49 Level Seattle Center
Fri 03:22:02 PM 46.4394 -124.8603 271° West 374 430 5,400 -49 Descending Seattle Center
Fri 03:23:03 PM 46.5008 -124.9769 307° West 379 436 5,400 148 Level Seattle Center
Fri 03:24:04 PM 46.6003 -124.9878 356° North 363 418 5,700 49 Climbing Seattle Center
Fri 03:25:05 PM 46.7033 -125.0019 355° North 368 423 5,500 -197 Descending Seattle Center
Fri 03:26:06 PM 46.7858 -124.9239 33° Northeast 371 427 5,300 -98 Descending Seattle Center
Fri 03:27:07 PM 46.8458 -124.8158 51° Northeast 356 410 5,300 49 Level Seattle Center
Fri 03:28:08 PM 46.8544 -124.6700 85° East 356 410 5,400 49 Climbing Seattle Center
Fri 03:29:09 PM 46.8139 -124.5183 111° Southeast 362 417 5,400  Level Seattle Center
Fri 03:30:11 PM 46.7356 -124.4283 142° Southeast 359 413 5,400  Level Seattle Center
Fri 03:31:12 PM 46.6369 -124.4058 171° South 369 425 5,400 197 Level Seattle Center
Fri 03:32:13 PM 46.5350 -124.4158 184° South 369 425 5,800 197 Climbing Seattle Center
Fri 03:33:14 PM 46.4356 -124.4347 187° South 364 419 5,800 -98 Level Seattle Center
Fri 03:34:15 PM 46.3881 -124.5669 243° Southwest 389 448 5,600 -246 Descending Seattle Center
Fri 03:35:16 PM 46.3833 -124.7114 267° West 383 441 5,300 -148 Descending Seattle Center
Fri 03:36:17 PM 46.4564 -124.8197 314° West 359 413 5,300 49 Level Seattle Center
Fri 03:37:18 PM 46.5261 -124.9150 317° Northwest 346 398 5,400 49 Climbing Seattle Center
Fri 03:38:20 PM 46.6056 -124.9775 332° Northwest 340 391 5,400 -49 Level Seattle Center
Fri 03:39:21 PM 46.6931 -124.9942 353° North 318 366 5,300  Descending Seattle Center
Fri 03:40:22 PM 46.7514 -124.9153 43° Northeast 300 345 5,400 49 Climbing Seattle Center
Fri 03:41:23 PM 46.7517 -124.8028 90° East 285 328 5,400  Level Seattle Center
Fri 03:42:24 PM 46.7519 -124.6883 90° East 284 327 5,400  Level Seattle Center
Fri 03:43:25 PM 46.7411 -124.5739 98° East 291 335 5,400  Level Seattle Center
Fri 03:44:26 PM 46.6589 -124.5469 167° South 304 350 5,400 146 Level Seattle Center
Fri 03:45:28 PM 46.5636 -124.5264 172° South 332 382 5,700 195 Climbing Seattle Center
Fri 03:46:29 PM 46.4625 -124.5125 175° South 357 411 5,800  Climbing Seattle Center
Fri 03:47:30 PM 46.3792 -124.6133 220° Southwest 388 447 5,700 -197 Descending Seattle Center
Fri 03:48:31 PM 46.4050 -124.7411 286° West 373 429 5,400 -197 Descending Seattle Center
Fri 03:49:32 PM 46.4708 -124.8078 325° Northwest 341 392 5,300 -49 Descending Seattle Center
Fri 03:50:33 PM 46.5367 -124.8819 322° Northwest 309 356 5,300 49 Level Seattle Center
Fri 03:51:34 PM 46.6144 -124.9642 324° Northwest 291 335 5,400 49 Climbing Seattle Center
Fri 03:52:36 PM 46.6939 -124.9844 350° North 292 336 5,400  Level Seattle Center
Fri 03:53:37 PM 46.7667 -124.9219 30° Northeast 299 344 5,400  Level Seattle Center
Fri 03:54:38 PM 46.8019 -124.7831 70° East 347 399 5,400 -49 Level Seattle Center
Fri 03:55:39 PM 46.8356 -124.6419 71° East 360 414 5,300  Descending Seattle Center
Fri 03:57:00 PM 46.6907 -124.5665 160° South  Level FlightAware Approximate
Fri 03:57:42 PM 46.6800 -124.4897 160° South 375 432 5,400  Level Seattle Center
Fri 03:58:43 PM 46.5811 -124.4517 165° South 371 427 5,400 -49 Level Seattle Center
Fri 03:59:44 PM 46.4797 -124.4408 176° South 381 438 5,300 -49 Descending Seattle Center
Fri 04:00:45 PM 46.4139 -124.5556 230° Southwest 375 432 5,300 49 Level Seattle Center
Fri 04:01:46 PM 46.3489 -124.6956 236° Southwest 370 426 5,400 49 Climbing Seattle Center
Fri 04:02:47 PM 46.2928 -124.8167 236° Southwest 366 421 5,400 -49 Level Seattle Center
Fri 04:03:48 PM 46.2369 -124.9353 236° Southwest 363 418 5,300  Descending Seattle Center
Fri 04:04:50 PM 46.2097 -125.0619 253° West 349 402 5,400 49 Climbing Seattle Center
Fri 04:05:51 PM 46.2731 -125.1533 315° West 331 381 5,400  Level Seattle Center
Fri 04:06:52 PM 46.3589 -125.1783 349° North 328 377 5,400  Level Seattle Center
Fri 04:07:53 PM 46.4506 -125.1542 10° North 319 367 5,400 -49 Level Seattle Center
Fri 04:08:54 PM 46.5375 -125.1289 11° North 317 365 5,300  Descending Seattle Center
Fri 04:09:55 PM 46.6242 -125.1044 11° North 318 366 5,400 49 Climbing Seattle Center
Fri 04:10:56 PM 46.7100 -125.0628 18° North 327 376 5,400 -49 Level Seattle Center
Fri 04:11:58 PM 46.7550 -124.9606 57° Northeast 303 349 5,300 -49 Descending Seattle Center
Fri 04:12:59 PM 46.7975 -124.8622 58° Northeast 262 302 5,300  Level Seattle Center
Fri 04:14:00 PM 46.8208 -124.8067 58° Northeast 211 243 5,300 49 Level Seattle Center
Fri 04:15:01 PM 46.8419 -124.7636 54° Northeast 170 196 5,400 49 Climbing Seattle Center
Fri 04:16:02 PM 46.8628 -124.7169 57° Northeast 151 174 5,400  Level Seattle Center
Fri 04:17:03 PM 46.8831 -124.6717 57° Northeast 142 163 5,400  Level Seattle Center
Fri 04:18:04 PM 46.9064 -124.6222 55° Northeast 142 163 5,400  Level Seattle Center
Fri 04:19:06 PM 46.9381 -124.5475 58° Northeast 177 204 5,400  Level Seattle Center
Fri 04:20:07 PM 46.9594 -124.4392 74° East 243 280 5,400  Level Seattle Center
Fri 04:21:08 PM 46.9583 -124.3522 91° East 244 281 5,400  Level Seattle Center
Fri 04:22:09 PM 46.8981 -124.3228 162° South 240 276 5,400  Level Seattle Center
Fri 04:23:10 PM 46.8181 -124.3711 202° Southwest 246 283 5,400  Level Seattle Center
Fri 04:24:11 PM 46.7503 -124.4217 207° Southwest 264 304 5,400  Level Seattle Center
Fri 04:25:13 PM 46.6836 -124.4711 207° Southwest 267 307 5,400  Level Seattle Center
Fri 04:26:14 PM 46.6078 -124.5222 205° Southwest 286 329 5,400  Level Seattle Center
Fri 04:27:15 PM 46.5283 -124.5808 207° Southwest 310 357 5,400  Level Seattle Center
Fri 04:28:16 PM 46.4442 -124.6378 205° Southwest 327 376 5,400  Level Seattle Center
Fri 04:29:17 PM 46.3622 -124.6967 206° Southwest 342 394 5,400 -49 Level Seattle Center
Fri 04:30:18 PM 46.2572 -124.7769 208° Southwest 353 406 5,300  Descending Seattle Center
Fri 04:31:19 PM 46.2144 -124.9028 244° Southwest 358 412 5,400  Climbing Seattle Center
Fri 04:32:21 PM 46.2328 -125.0350 281° West 355 409 5,300 -49 Descending Seattle Center
Fri 04:33:22 PM 46.3169 -125.0903 336° Northwest 338 389 5,300  Level Seattle Center
Fri 04:34:23 PM 46.4122 -125.1378 341° North 336 387 5,300  Level Seattle Center
Fri 04:35:24 PM 46.5058 -125.1236 North 341 392 5,300 49 Level Seattle Center
Fri 04:36:25 PM 46.5906 -125.1167 North 334 384 5,400 49 Climbing Seattle Center
Fri 04:37:26 PM 46.6869 -125.0831 13° North 341 392 5,400  Level Seattle Center
Fri 04:38:27 PM 46.7367 -124.9700 57° Northeast 337 388 5,400  Level Seattle Center
Fri 04:39:29 PM 46.7803 -124.8544 61° Northeast 333 383 5,400 -49 Level Seattle Center
Fri 04:40:30 PM 46.8161 -124.7489 64° Northeast 314 361 5,300 -49 Descending Seattle Center
Fri 04:41:31 PM 46.8444 -124.6736 61° Northeast 269 310 5,300 49 Level Seattle Center
Fri 04:42:32 PM 46.8636 -124.6303 57° Northeast 198 228 5,400 49 Climbing Seattle Center
Fri 04:43:33 PM 46.8700 -124.5814 79° East 164 189 5,400  Level Seattle Center
Fri 04:44:34 PM 46.8514 -124.5219 115° Southeast 147 169 5,400  Level Seattle Center
Fri 04:45:35 PM 46.8358 -124.4708 114° Southeast 140 161 5,400  Level Seattle Center
Fri 04:46:36 PM 46.8203 -124.4189 114° Southeast 139 160 5,400  Level Seattle Center
Fri 04:47:37 PM 46.8039 -124.3694 116° Southeast 138 159 5,400  Level Seattle Center
Fri 04:48:39 PM 46.7836 -124.3203 121° Southeast 145 167 5,400 -49 Level Seattle Center
Fri 04:49:40 PM 46.7358 -124.3314 189° South 171 197 5,300 197 Descending Seattle Center
Fri 04:50:41 PM 46.6739 -124.3536 194° South 218 251 5,800 1,574 Climbing Seattle Center
Fri 04:51:42 PM 46.6111 -124.4236 217° Southwest 265 305 8,500 2,508 Climbing Seattle Center
Fri 04:52:43 PM 46.5489 -124.4914 217° Southwest 278 320 10,900 984 Climbing Seattle Center
Fri 04:53:44 PM 46.4828 -124.5589 215° Southwest 286 329 10,500 -49 Descending Seattle Center
Fri 04:54:45 PM 46.4461 -124.6522 240° Southwest 282 325 10,800 836 Climbing Seattle Center
Fri 04:55:46 PM 46.4394 -124.7872 266° West 280 322 12,200 829 Climbing Seattle Center
Fri 04:56:48 PM 46.4328 -124.8986 265° West 278 320 12,500 146 Climbing Seattle Center
Fri 04:57:49 PM 46.4261 -125.0114 265° West 280 322 12,500  Level Seattle Center
Fri 04:58:50 PM 46.4197 -125.1239 265° West 281 323 12,500  Level Seattle Center
Fri 04:59:51 PM 46.4372 -125.2344 283° West 287 330 12,500  Level Seattle Center
Fri 05:00:52 PM 46.4728 -125.3319 298° West 285 328 12,500 295 Level Seattle Center
Fri 05:01:53 PM 46.5169 -125.4233 305° West 278 320 13,100 2,262 Climbing Seattle Center
Fri 05:02:54 PM 46.5628 -125.5150 306° West 281 323 17,100 3,541 Climbing Seattle Center
Fri 05:03:55 PM 46.6097 -125.6111 305° West 288 331 20,300 3,246 Climbing Seattle Center
Fri 05:04:56 PM 46.6586 -125.7128 305° West 298 343 23,700 3,197 Climbing Seattle Center
Fri 05:05:57 PM 46.7094 -125.8164 306° West 308 354 26,800 2,634 Climbing Seattle Center
Fri 05:06:59 PM 46.7708 -125.9417 306° West 316 364 29,100 1,561 Climbing Seattle Center
Fri 05:08:00 PM 46.8297 -126.0625 305° West 352 405 30,000 393 Climbing Seattle Center
Fri 05:09:01 PM 46.8986 -126.2067 305° West 421 484 29,900 148 Descending Seattle Center
Fri 05:10:02 PM 46.9703 -126.3539 306° West 439 505 30,300 1,574 Climbing Seattle Center
Fri 05:11:03 PM 47.0414 -126.4981 306° West 439 505 33,100 2,410 Climbing Seattle Center
Fri 05:12:04 PM 47.1106 -126.6400 306° West 431 496 35,200 2,115 Climbing Seattle Center
Fri 05:13:05 PM 47.1789 -126.7814 305° West 427 491 37,400 1,426 Climbing Seattle Center
Fri 05:14:06 PM 47.2469 -126.9208 306° West 423 487 38,100 1,180 Climbing Seattle Center
Fri 05:15:07 PM 47.3175 -127.0661 306° West 432 497 39,800 1,082 Climbing Seattle Center
Fri 05:16:08 PM 47.3872 -127.2111 305° West 433 498 40,300 541 Climbing Seattle Center
Fri 05:17:09 PM 47.4733 -127.3492 313° West 462 532 40,900 934 Climbing Seattle Center
Fri 05:18:10 PM 47.5933 -127.4247 337° Northwest 470 541 42,200 787 Climbing Seattle Center
Fri 05:19:11 PM 47.7178 -127.4914 340° North 474 545 42,500 293 Climbing Seattle Center
Fri 05:20:13 PM 47.8797 -127.5556 345° North 508 585 42,800 195 Climbing Seattle Center
Fri 05:21:14 PM 48.0172 -127.4806 20° North 539 620 42,900 49 Climbing Seattle Center
Fri 05:22:15 PM 48.0889 -127.2797 62° Northeast 564 649 42,900 49 Level Seattle Center
Fri 05:23:16 PM 48.0878 -127.0456 90° East 563 648 43,000 49 Climbing Seattle Center
Fri 05:24:17 PM 48.0828 -126.8119 92° East 565 650 43,000  Level Seattle Center
Fri 05:25:18 PM 48.0800 -126.5778 91° East 565 650 43,000 -49 Level Seattle Center
Fri 05:26:19 PM 48.0642 -126.3492 96° East 565 650 42,900 49 Descending Seattle Center
Fri 05:27:20 PM 47.9653 -126.1914 133° Southeast 532 612 43,100 98 Climbing Seattle Center
Fri 05:28:21 PM 47.8375 -126.1197 159° South 491 565 43,100 -49 Level Seattle Center
Fri 05:29:22 PM 47.7108 -126.0494 160° South 488 562 43,000 -98 Descending Seattle Center
Fri 05:30:23 PM 47.5617 -125.9669 160° South 483 556 42,900 -590 Descending Seattle Center
Fri 05:31:24 PM 47.4383 -125.8975 159° South 477 549 41,800 -885 Descending Seattle Center
Fri 05:32:25 PM 47.3142 -125.8300 160° South 478 550 41,100 -878 Descending Seattle Center
Fri 05:33:27 PM 47.1881 -125.7583 159° South 485 558 40,000 -683 Descending Seattle Center
Fri 05:34:28 PM 47.0625 -125.6908 160° South 483 556 39,700 -295 Descending Seattle Center
Fri 05:35:29 PM 46.9406 -125.6222 159° South 475 547 39,400 -295 Descending Seattle Center
Fri 05:36:30 PM 46.8206 -125.5569 160° South 464 534 39,100 -393 Descending Seattle Center
Fri 05:37:31 PM 46.7025 -125.4908 159° South 457 526 38,600 -492 Descending Seattle Center
Fri 05:38:32 PM 46.5864 -125.4736 174° South 420 483 38,100 -393 Descending Seattle Center
Fri 05:39:33 PM 46.5167 -125.5783 226° Southwest 367 422 37,800 -393 Descending Seattle Center
Fri 05:40:34 PM 46.4594 -125.7278 241° Southwest 355 409 37,300 -393 Descending Seattle Center
Fri 05:41:35 PM 46.4108 -125.8494 240° Southwest 352 405 37,000 -341 Descending Seattle Center
Fri 05:42:37 PM 46.3714 -125.9761 246° West 350 403 36,600 -341 Descending Seattle Center
Fri 05:43:38 PM 46.4106 -126.1031 294° West 361 415 36,300 -295 Descending Seattle Center
Fri 05:44:39 PM 46.5031 -126.1908 327° Northwest 394 453 36,000 -246 Descending Seattle Center
Fri 05:45:40 PM 46.5939 -126.2775 327° Northwest 391 450 35,800 -246 Descending Seattle Center
Fri 05:46:41 PM 46.6847 -126.3633 327° Northwest 390 449 35,500 -246 Descending Seattle Center
Fri 05:47:42 PM 46.7739 -126.4475 327° Northwest 385 443 35,300 -246 Descending Seattle Center
Fri 05:48:43 PM 46.8644 -126.5342 327° Northwest 388 447 35,000 -197 Descending Seattle Center
Fri 05:49:44 PM 46.9556 -126.6186 328° Northwest 388 447 34,900 -148 Descending Seattle Center
Fri 05:50:45 PM 47.0456 -126.7039 327° Northwest 387 445 34,700 -146 Descending Seattle Center
Fri 05:51:47 PM 47.1367 -126.7886 328° Northwest 387 445 34,600 -341 Descending Seattle Center
Fri 05:52:48 PM 47.2458 -126.8936 327° Northwest 390 449 34,000 -836 Descending Seattle Center
Fri 05:53:49 PM 47.3406 -126.9811 328° Northwest 398 458 32,900 -1,967 Descending Seattle Center
Fri 05:54:50 PM 47.4419 -127.0881 325° Northwest 440 506 30,000 -1,377 Descending Seattle Center
Fri 05:55:51 PM 47.5428 -127.1989 323° Northwest 452 520 30,100 443 Climbing Seattle Center
Fri 05:56:52 PM 47.6625 -127.2400 347° North 467 537 30,900 492 Climbing Seattle Center
Fri 05:57:53 PM 47.7672 -127.0969 43° Northeast 527 606 31,100 49 Climbing Seattle Center
Fri 05:58:54 PM 47.8089 -126.8742 74° East 561 646 31,000 590 Descending Seattle Center
Fri 05:59:55 PM 47.8556 -126.6533 72° East 560 644 32,300 1,328 Climbing Seattle Center
Fri 06:00:56 PM 47.9036 -126.4253 72° East 571 657 33,700 1,707 Climbing Seattle Center
Fri 06:01:58 PM 47.9256 -126.1897 82° East 581 669 35,800 1,707 Climbing Seattle Center
Fri 06:02:59 PM 47.8447 -125.9997 122° Southeast 551 634 37,200 1,377 Climbing Seattle Center
Fri 06:04:00 PM 47.6914 -125.9164 160° South 495 570 38,600 1,279 Climbing Seattle Center
Fri 06:05:01 PM 47.5578 -125.8667 166° South 496 571 39,800 1,426 Climbing Seattle Center
Fri 06:06:02 PM 47.4233 -125.8239 168° South 496 571 41,500 1,131 Climbing Seattle Center
Fri 06:07:03 PM 47.3025 -125.8733 196° South 463 533 42,100 738 Climbing Seattle Center
Fri 06:08:04 PM 47.2542 -126.0331 246° West 436 502 43,000 443 Climbing Seattle Center
Fri 06:09:05 PM 47.3089 -126.1981 296° West 465 535 43,000  Level Seattle Center
Fri 06:10:06 PM 47.4333 -126.2856 335° Northwest 499 574 43,000 -49 Level Seattle Center
Fri 06:11:07 PM 47.5683 -126.3483 343° North 517 595 42,900  Descending Seattle Center
Fri 06:12:08 PM 47.7081 -126.2669 21° North 556 640 43,000 98 Climbing Seattle Center
Fri 06:13:10 PM 47.7731 -126.0622 65° Northeast 568 654 43,100 49 Climbing Seattle Center
Fri 06:14:11 PM 47.7111 -125.8664 115° Southeast 544 626 43,100  Level Seattle Center
Fri 06:15:12 PM 47.5594 -125.7869 161° South 494 568 43,100 -49 Level Seattle Center
Fri 06:16:13 PM 47.4333 -125.7456 167° South 474 545 43,000 -639 Descending Seattle Center
Fri 06:17:14 PM 47.3078 -125.7047 168° South 467 537 41,800 -1,033 Descending Seattle Center
Fri 06:18:15 PM 47.1783 -125.6608 167° South 476 548 40,900 -836 Descending Seattle Center
Fri 06:19:16 PM 47.0497 -125.6183 167° South 476 548 40,100 -590 Descending Seattle Center
Fri 06:20:17 PM 46.9222 -125.5753 167° South 475 547 39,700 -295 Descending Seattle Center
Fri 06:21:18 PM 46.7975 -125.5331 167° South 464 534 39,500 -246 Descending Seattle Center
Fri 06:22:19 PM 46.6756 -125.4911 167° South 454 522 39,200 -344 Descending Seattle Center
Fri 06:23:20 PM 46.5672 -125.5175 190° South 402 463 38,800 -393 Descending Seattle Center
Fri 06:24:21 PM 46.5094 -125.6397 236° Southwest 371 427 38,400 -344 Descending Seattle Center
Fri 06:25:22 PM 46.4622 -125.7708 242° Southwest 367 422 38,100 -344 Descending Seattle Center
Fri 06:26:23 PM 46.4067 -125.9206 242° Southwest 355 409 37,700 -293 Descending Seattle Center
Fri 06:27:25 PM 46.3608 -126.0472 242° Southwest 354 407 37,500 -244 Descending Seattle Center
Fri 06:28:26 PM 46.3197 -126.1589 242° Southwest 351 404 37,200 -295 Descending Seattle Center
Fri 06:29:27 PM 46.2761 -126.2786 242° Southwest 342 394 36,900 -295 Descending Seattle Center
Fri 06:30:28 PM 46.2808 -126.4139 273° West 355 409 36,600 -295 Descending Seattle Center
Fri 06:31:29 PM 46.3767 -126.5153 324° Northwest 403 464 36,300 -246 Descending Seattle Center
Fri 06:32:30 PM 46.4769 -126.5906 333° Northwest 407 468 36,100 -295 Descending Seattle Center
Fri 06:33:31 PM 46.5756 -126.6642 333° Northwest 400 460 35,700 -295 Descending Seattle Center
Fri 06:34:32 PM 46.6792 -126.7328 336° Northwest 406 467 35,500 -246 Descending Seattle Center
Fri 06:35:33 PM 46.7856 -126.7975 337° Northwest 413 475 35,200 -148 Descending Seattle Center
Fri 06:36:34 PM 46.8906 -126.8611 338° Northwest 410 472 35,200 -148 Level Seattle Center
Fri 06:37:35 PM 46.9953 -126.9253 337° Northwest 409 471 34,900 -246 Descending Seattle Center
Fri 06:38:36 PM 47.1219 -127.0022 338° Northwest 410 472 34,700 -148 Descending Seattle Center
Fri 06:39:37 PM 47.2281 -127.0681 337° Northwest 412 474 34,600 -98 Descending Seattle Center
Fri 06:40:38 PM 47.3328 -127.1306 338° Northwest 409 471 34,500 -443 Descending Seattle Center
Fri 06:41:39 PM 47.4392 -127.1947 338° Northwest 411 473 33,700 -1,377 Descending Seattle Center
Fri 06:42:40 PM 47.5478 -127.2633 337° Northwest 419 482 31,700 -1,869 Descending Seattle Center
Fri 06:43:41 PM 47.6669 -127.3478 334° Northwest 460 529 29,900 -787 Descending Seattle Center
Fri 06:44:42 PM 47.7953 -127.3622 356° North 489 563 30,100  Climbing Seattle Center
Fri 06:45:43 PM 47.8678 -127.1758 60° Northeast 539 620 29,900 -98 Descending Seattle Center
Fri 06:46:44 PM 47.9125 -126.9619 73° East 543 625 29,900 49 Level Seattle Center
Fri 06:47:45 PM 47.9500 -126.7514 75° East 531 611 30,000  Climbing Seattle Center
Fri 06:48:46 PM 47.9886 -126.5353 75° East 536 617 29,900 -49 Descending Seattle Center
Fri 06:49:47 PM 47.9872 -126.3097 90° East 547 629 29,900  Level Seattle Center
Fri 06:50:48 PM 47.9650 -126.0422 97° East 544 626 29,900 49 Level Seattle Center
Fri 06:51:50 PM 47.9461 -125.8189 97° East 545 627 30,000 49 Climbing Seattle Center
Fri 06:52:51 PM 47.9278 -125.5942 97° East 548 631 30,000 -148 Level Seattle Center
Fri 06:53:52 PM 47.9094 -125.3706 97° East 549 632 29,700 -590 Descending Seattle Center
Fri 06:54:53 PM 47.8892 -125.1489 98° East 548 631 28,800 -934 Descending Seattle Center
Fri 06:55:54 PM 47.8714 -124.9400 97° East 519 597 27,800 -1,131 Descending Seattle Center
Fri 06:56:55 PM 47.8519 -124.7314 98° East 517 595 26,500 -1,770 Descending Seattle Center
Fri 06:57:56 PM 47.8328 -124.5278 98° East 510 587 24,200 -2,311 Descending Seattle Center
Fri 06:58:57 PM 47.8142 -124.3347 98° East 486 559 21,800 -2,656 Descending Seattle Center
Fri 06:59:58 PM 47.7911 -124.1069 98° East 470 541 18,800 -2,508 Descending Seattle Center
Fri 07:00:59 PM 47.7736 -123.9256 98° East 451 519 16,700 -1,672 Descending Seattle Center
Fri 07:02:00 PM 47.7564 -123.7564 99° East 420 483 15,400 -1,525 Descending Seattle Center
Fri 07:03:01 PM 47.7408 -123.5903 98° East 356 410 13,600 -2,262 Descending Seattle Center
Fri 07:04:02 PM 47.7275 -123.4742 100° East 335 386 10,800 -2,763 Descending Seattle Center
Fri 07:04:17 PM 47.7244 -123.4253 95° East 313 360 10,100 -787 Descending Seattle Center
Fri 07:05:03 PM 47.7156 -123.3533 100° East 301 346 10,000 -56 Descending Seattle Center
Fri 07:06:04 PM 47.7003 -123.2092 99° East 297 342 10,000  Level Seattle Center
Fri 07:07:06 PM 47.6733 -123.0961 109° East 293 337 10,000  Level Seattle Center
Fri 07:08:07 PM 47.6428 -122.9850 112° Southeast 296 341 10,000 -148 Level Seattle Center
Fri 07:09:08 PM 47.6136 -122.8761 112° Southeast 284 327 9,700 -774 Descending Seattle Center
Fri 07:10:11 PM 47.5744 -122.7586 116° Southeast 276 318 8,400 -885 Descending Seattle Center
Fri 07:11:10 PM 47.5419 -122.6628 117° Southeast 257 296 7,900 -700 Descending Seattle Center
Fri 07:12:11 PM 47.5114 -122.5744 117° Southeast 244 281 7,000 -836 Descending Seattle Center
Fri 07:13:12 PM 47.4794 -122.4903 119° Southeast 237 273 6,200 -689 Descending Seattle Center
Fri 07:14:13 PM 47.4483 -122.4142 121° Southeast 221 254 5,600 -885 Descending Seattle Center
Fri 07:15:14 PM 47.4186 -122.3408 121° Southeast 196 226 4,400 -976 Descending Seattle Center
Fri 07:16:16 PM 47.4111 -122.2844 101° East 152 175 3,600 -1,122 Descending Seattle Center
Fri 07:17:17 PM 47.4464 -122.2461 36° Northeast 153 176 2,100 -1,279 Descending Seattle Center
Fri 07:18:18 PM 47.4808 -122.2625 342° North 135 155 1,000 -934 Descending Seattle Center
Fri 07:19:19 PM 47.5119 -122.2881 331° Northwest 130 150 200 -443 Descending Seattle Center
Fri 07:20:20 PM 47.5403 -122.3111 331° Northwest 129 148 100 -98 Descending Seattle Center

Login

Don't have an account? Register now (free) for customized features, flight alerts, and more!